sensor_id;sensor_type;location;lat;lon;timestamp;temperature;humidity
4399;DHT22;2213;49.720;7.296;2022-11-24T00:01:26;7.50;99.90
4399;DHT22;2213;49.720;7.296;2022-11-24T00:03:58;7.40;99.90
4399;DHT22;2213;49.720;7.296;2022-11-24T00:06:30;7.30;99.90
4399;DHT22;2213;49.720;7.296;2022-11-24T00:09:01;7.30;99.90
4399;DHT22;2213;49.720;7.296;2022-11-24T00:11:32;7.30;99.90
4399;DHT22;2213;49.720;7.296;2022-11-24T00:14:04;7.20;99.90
4399;DHT22;2213;49.720;7.296;2022-11-24T00:16:36;7.20;99.90
4399;DHT22;2213;49.720;7.296;2022-11-24T00:19:06;7.20;99.90
4399;DHT22;2213;49.720;7.296;2022-11-24T00:21:40;7.20;99.90
4399;DHT22;2213;49.720;7.296;2022-11-24T00:24:11;7.20;99.90
4399;DHT22;2213;49.720;7.296;2022-11-24T00:26:40;7.10;99.90
4399;DHT22;2213;49.720;7.296;2022-11-24T00:29:11;7.10;99.90
4399;DHT22;2213;49.720;7.296;2022-11-24T00:31:41;7.10;99.90
4399;DHT22;2213;49.720;7.296;2022-11-24T00:34:11;7.10;99.90
4399;DHT22;2213;49.720;7.296;2022-11-24T00:36:41;7.20;99.90
4399;DHT22;2213;49.720;7.296;2022-11-24T00:39:12;7.10;99.90
4399;DHT22;2213;49.720;7.296;2022-11-24T00:41:44;7.10;99.90
4399;DHT22;2213;49.720;7.296;2022-11-24T00:44:15;7.20;99.90
4399;DHT22;2213;49.720;7.296;2022-11-24T00:46:44;7.30;99.90
4399;DHT22;2213;49.720;7.296;2022-11-24T00:49:14;7.30;99.90
4399;DHT22;2213;49.720;7.296;2022-11-24T00:51:44;7.30;99.90
4399;DHT22;2213;49.720;7.296;2022-11-24T00:54:13;7.40;99.90
4399;DHT22;2213;49.720;7.296;2022-11-24T00:56:43;7.40;99.90
4399;DHT22;2213;49.720;7.296;2022-11-24T00:59:13;7.40;99.90
4399;DHT22;2213;49.720;7.296;2022-11-24T01:01:42;7.40;99.90
4399;DHT22;2213;49.720;7.296;2022-11-24T01:04:12;7.40;99.90
4399;DHT22;2213;49.720;7.296;2022-11-24T01:06:42;7.40;99.90
4399;DHT22;2213;49.720;7.296;2022-11-24T01:09:11;7.50;99.90
4399;DHT22;2213;49.720;7.296;2022-11-24T01:11:41;7.50;99.90
4399;DHT22;2213;49.720;7.296;2022-11-24T01:14:30;7.50;99.90
4399;DHT22;2213;49.720;7.296;2022-11-24T01:17:00;7.50;99.90
4399;DHT22;2213;49.720;7.296;2022-11-24T01:19:30;7.40;99.90
4399;DHT22;2213;49.720;7.296;2022-11-24T01:22:00;7.40;99.90
4399;DHT22;2213;49.720;7.296;2022-11-24T01:24:29;7.40;99.90
4399;DHT22;2213;49.720;7.296;2022-11-24T01:27:00;7.50;99.90
4399;DHT22;2213;49.720;7.296;2022-11-24T01:29:31;7.50;99.90
4399;DHT22;2213;49.720;7.296;2022-11-24T01:32:03;7.50;99.90
4399;DHT22;2213;49.720;7.296;2022-11-24T01:34:33;7.50;99.90
4399;DHT22;2213;49.720;7.296;2022-11-24T01:37:03;7.50;99.90
4399;DHT22;2213;49.720;7.296;2022-11-24T01:39:32;7.50;99.90
4399;DHT22;2213;49.720;7.296;2022-11-24T01:42:01;7.60;99.90
4399;DHT22;2213;49.720;7.296;2022-11-24T01:44:32;7.60;99.90
4399;DHT22;2213;49.720;7.296;2022-11-24T01:47:05;7.60;99.90
4399;DHT22;2213;49.720;7.296;2022-11-24T01:50:00;7.70;99.90
4399;DHT22;2213;49.720;7.296;2022-11-24T01:52:35;7.70;99.90
4399;DHT22;2213;49.720;7.296;2022-11-24T01:55:14;7.60;99.90
4399;DHT22;2213;49.720;7.296;2022-11-24T01:57:52;7.70;99.90
4399;DHT22;2213;49.720;7.296;2022-11-24T02:00:31;7.80;99.90
4399;DHT22;2213;49.720;7.296;2022-11-24T02:03:02;7.80;99.90
4399;DHT22;2213;49.720;7.296;2022-11-24T02:05:36;7.90;99.90
4399;DHT22;2213;49.720;7.296;2022-11-24T02:08:16;7.80;99.90
4399;DHT22;2213;49.720;7.296;2022-11-24T02:10:50;7.80;99.90
4399;DHT22;2213;49.720;7.296;2022-11-24T02:13:20;7.90;99.90
4399;DHT22;2213;49.720;7.296;2022-11-24T02:15:52;7.90;99.90
4399;DHT22;2213;49.720;7.296;2022-11-24T02:18:23;7.90;99.90
4399;DHT22;2213;49.720;7.296;2022-11-24T02:20:53;7.90;99.90
4399;DHT22;2213;49.720;7.296;2022-11-24T02:23:26;8.00;99.90
4399;DHT22;2213;49.720;7.296;2022-11-24T02:26:08;7.90;99.90
4399;DHT22;2213;49.720;7.296;2022-11-24T02:28:47;8.00;99.90
4399;DHT22;2213;49.720;7.296;2022-11-24T02:31:17;7.90;99.90
4399;DHT22;2213;49.720;7.296;2022-11-24T02:33:47;8.00;99.90
4399;DHT22;2213;49.720;7.296;2022-11-24T02:36:19;8.00;99.90
4399;DHT22;2213;49.720;7.296;2022-11-24T02:38:48;8.00;99.90
4399;DHT22;2213;49.720;7.296;2022-11-24T02:41:21;8.10;99.90
4399;DHT22;2213;49.720;7.296;2022-11-24T02:43:56;7.90;99.90
4399;DHT22;2213;49.720;7.296;2022-11-24T02:46:27;7.90;99.90
4399;DHT22;2213;49.720;7.296;2022-11-24T02:48:57;7.90;99.90
4399;DHT22;2213;49.720;7.296;2022-11-24T02:51:26;7.90;99.90
4399;DHT22;2213;49.720;7.296;2022-11-24T02:53:56;8.00;99.90
4399;DHT22;2213;49.720;7.296;2022-11-24T02:56:25;8.00;99.90
4399;DHT22;2213;49.720;7.296;2022-11-24T02:58:56;8.00;99.90
4399;DHT22;2213;49.720;7.296;2022-11-24T03:01:25;8.00;99.90
4399;DHT22;2213;49.720;7.296;2022-11-24T03:03:54;8.00;99.90
4399;DHT22;2213;49.720;7.296;2022-11-24T03:06:23;8.00;99.90
4399;DHT22;2213;49.720;7.296;2022-11-24T03:08:53;8.00;99.90
4399;DHT22;2213;49.720;7.296;2022-11-24T03:11:23;8.10;99.90
4399;DHT22;2213;49.720;7.296;2022-11-24T03:13:54;8.10;99.90
4399;DHT22;2213;49.720;7.296;2022-11-24T03:16:23;8.00;99.90
4399;DHT22;2213;49.720;7.296;2022-11-24T03:18:53;8.00;99.90
4399;DHT22;2213;49.720;7.296;2022-11-24T03:21:22;8.00;99.90
4399;DHT22;2213;49.720;7.296;2022-11-24T03:23:53;8.00;99.90
4399;DHT22;2213;49.720;7.296;2022-11-24T03:26:24;8.10;99.90
4399;DHT22;2213;49.720;7.296;2022-11-24T03:28:54;8.00;99.90
4399;DHT22;2213;49.720;7.296;2022-11-24T03:31:24;8.00;99.90
4399;DHT22;2213;49.720;7.296;2022-11-24T03:33:53;8.00;99.90
4399;DHT22;2213;49.720;7.296;2022-11-24T03:36:24;8.00;99.90
4399;DHT22;2213;49.720;7.296;2022-11-24T03:38:53;8.00;99.90
4399;DHT22;2213;49.720;7.296;2022-11-24T03:41:23;7.90;99.90
4399;DHT22;2213;49.720;7.296;2022-11-24T03:43:52;7.80;99.90
4399;DHT22;2213;49.720;7.296;2022-11-24T03:46:23;7.90;99.90
4399;DHT22;2213;49.720;7.296;2022-11-24T03:48:54;8.00;99.90
4399;DHT22;2213;49.720;7.296;2022-11-24T03:51:24;8.00;99.90
4399;DHT22;2213;49.720;7.296;2022-11-24T03:53:54;8.00;99.90
4399;DHT22;2213;49.720;7.296;2022-11-24T03:56:23;7.90;99.90
4399;DHT22;2213;49.720;7.296;2022-11-24T03:58:54;8.00;99.90
4399;DHT22;2213;49.720;7.296;2022-11-24T04:01:23;7.90;99.90
4399;DHT22;2213;49.720;7.296;2022-11-24T04:03:54;7.90;99.90
4399;DHT22;2213;49.720;7.296;2022-11-24T04:06:24;7.90;99.90
4399;DHT22;2213;49.720;7.296;2022-11-24T04:08:53;8.00;99.90
4399;DHT22;2213;49.720;7.296;2022-11-24T04:11:24;8.00;99.90
4399;DHT22;2213;49.720;7.296;2022-11-24T04:14:13;8.00;99.90
4399;DHT22;2213;49.720;7.296;2022-11-24T04:16:44;8.00;99.90
4399;DHT22;2213;49.720;7.296;2022-11-24T04:19:14;7.90;99.90
4399;DHT22;2213;49.720;7.296;2022-11-24T04:21:44;8.00;99.90
4399;DHT22;2213;49.720;7.296;2022-11-24T04:24:13;8.00;99.90
4399;DHT22;2213;49.720;7.296;2022-11-24T04:26:43;7.90;99.90
4399;DHT22;2213;49.720;7.296;2022-11-24T04:29:15;8.00;99.90
4399;DHT22;2213;49.720;7.296;2022-11-24T04:31:45;8.00;99.90
4399;DHT22;2213;49.720;7.296;2022-11-24T04:34:14;8.00;99.90
4399;DHT22;2213;49.720;7.296;2022-11-24T04:36:44;8.00;99.90
4399;DHT22;2213;49.720;7.296;2022-11-24T04:39:13;8.10;99.90
4399;DHT22;2213;49.720;7.296;2022-11-24T04:41:52;8.00;99.90
4399;DHT22;2213;49.720;7.296;2022-11-24T04:44:23;8.00;99.90
4399;DHT22;2213;49.720;7.296;2022-11-24T04:46:52;8.00;99.90
4399;DHT22;2213;49.720;7.296;2022-11-24T04:49:22;8.00;99.90
4399;DHT22;2213;49.720;7.296;2022-11-24T04:51:51;7.90;99.90
4399;DHT22;2213;49.720;7.296;2022-11-24T04:54:21;8.10;99.90
4399;DHT22;2213;49.720;7.296;2022-11-24T04:56:51;8.10;99.90
4399;DHT22;2213;49.720;7.296;2022-11-24T04:59:23;8.10;99.90
4399;DHT22;2213;49.720;7.296;2022-11-24T05:01:52;8.10;99.90
4399;DHT22;2213;49.720;7.296;2022-11-24T05:04:22;8.00;99.90
4399;DHT22;2213;49.720;7.296;2022-11-24T05:06:52;8.10;99.90
4399;DHT22;2213;49.720;7.296;2022-11-24T05:09:21;8.10;99.90
4399;DHT22;2213;49.720;7.296;2022-11-24T05:12:11;8.10;99.90
4399;DHT22;2213;49.720;7.296;2022-11-24T05:14:43;8.10;99.90
4399;DHT22;2213;49.720;7.296;2022-11-24T05:17:13;8.10;99.90
4399;DHT22;2213;49.720;7.296;2022-11-24T05:19:42;8.10;99.90
4399;DHT22;2213;49.720;7.296;2022-11-24T05:22:11;8.10;99.90
4399;DHT22;2213;49.720;7.296;2022-11-24T05:24:41;8.10;99.90
4399;DHT22;2213;49.720;7.296;2022-11-24T05:27:10;8.10;99.90
4399;DHT22;2213;49.720;7.296;2022-11-24T05:29:41;8.10;99.90
4399;DHT22;2213;49.720;7.296;2022-11-24T05:32:11;8.10;99.90
4399;DHT22;2213;49.720;7.296;2022-11-24T05:34:40;8.00;99.90
4399;DHT22;2213;49.720;7.296;2022-11-24T05:37:11;8.00;99.90
4399;DHT22;2213;49.720;7.296;2022-11-24T05:39:40;8.00;99.90
4399;DHT22;2213;49.720;7.296;2022-11-24T05:42:09;8.00;99.90
4399;DHT22;2213;49.720;7.296;2022-11-24T05:44:58;7.90;99.90
4399;DHT22;2213;49.720;7.296;2022-11-24T05:47:28;8.00;99.90
4399;DHT22;2213;49.720;7.296;2022-11-24T05:49:57;8.00;99.90
4399;DHT22;2213;49.720;7.296;2022-11-24T05:52:27;8.10;99.90
4399;DHT22;2213;49.720;7.296;2022-11-24T05:54:56;8.10;99.90
4399;DHT22;2213;49.720;7.296;2022-11-24T05:57:26;8.10;99.90
4399;DHT22;2213;49.720;7.296;2022-11-24T05:59:56;7.90;99.90
4399;DHT22;2213;49.720;7.296;2022-11-24T06:02:26;7.90;99.90
4399;DHT22;2213;49.720;7.296;2022-11-24T06:04:57;8.00;99.90
4399;DHT22;2213;49.720;7.296;2022-11-24T06:07:27;8.00;99.90
4399;DHT22;2213;49.720;7.296;2022-11-24T06:09:55;8.00;99.90
4399;DHT22;2213;49.720;7.296;2022-11-24T06:12:25;7.90;99.90
4399;DHT22;2213;49.720;7.296;2022-11-24T06:14:53;7.90;99.90
4399;DHT22;2213;49.720;7.296;2022-11-24T06:17:25;7.90;99.90
4399;DHT22;2213;49.720;7.296;2022-11-24T06:19:54;8.00;99.90
4399;DHT22;2213;49.720;7.296;2022-11-24T06:22:24;7.90;99.90
4399;DHT22;2213;49.720;7.296;2022-11-24T06:24:53;8.00;99.90
4399;DHT22;2213;49.720;7.296;2022-11-24T06:27:21;7.90;99.90
4399;DHT22;2213;49.720;7.296;2022-11-24T06:29:51;8.00;99.90
4399;DHT22;2213;49.720;7.296;2022-11-24T06:32:21;8.00;99.90
4399;DHT22;2213;49.720;7.296;2022-11-24T06:34:53;8.00;99.90
4399;DHT22;2213;49.720;7.296;2022-11-24T06:37:22;8.00;99.90
4399;DHT22;2213;49.720;7.296;2022-11-24T06:39:51;7.90;99.90
4399;DHT22;2213;49.720;7.296;2022-11-24T06:42:20;7.90;99.90
4399;DHT22;2213;49.720;7.296;2022-11-24T06:45:19;8.00;99.90
4399;DHT22;2213;49.720;7.296;2022-11-24T06:47:53;7.90;99.90
4399;DHT22;2213;49.720;7.296;2022-11-24T06:50:23;7.90;99.90
4399;DHT22;2213;49.720;7.296;2022-11-24T06:53:00;7.90;99.90
4399;DHT22;2213;49.720;7.296;2022-11-24T06:55:29;8.00;99.90
4399;DHT22;2213;49.720;7.296;2022-11-24T06:57:59;8.00;99.90
4399;DHT22;2213;49.720;7.296;2022-11-24T07:00:29;8.00;99.90
4399;DHT22;2213;49.720;7.296;2022-11-24T07:02:59;8.00;99.90
4399;DHT22;2213;49.720;7.296;2022-11-24T07:05:29;8.10;99.90
4399;DHT22;2213;49.720;7.296;2022-11-24T07:07:58;8.10;99.90
4399;DHT22;2213;49.720;7.296;2022-11-24T07:10:31;8.00;99.90
4399;DHT22;2213;49.720;7.296;2022-11-24T07:13:01;8.10;99.90
4399;DHT22;2213;49.720;7.296;2022-11-24T07:15:31;8.10;99.90
4399;DHT22;2213;49.720;7.296;2022-11-24T07:18:01;8.10;99.90
4399;DHT22;2213;49.720;7.296;2022-11-24T07:20:33;8.00;99.90
4399;DHT22;2213;49.720;7.296;2022-11-24T07:23:03;8.00;99.90
4399;DHT22;2213;49.720;7.296;2022-11-24T07:25:33;8.00;99.90
4399;DHT22;2213;49.720;7.296;2022-11-24T07:28:03;8.00;99.90
4399;DHT22;2213;49.720;7.296;2022-11-24T07:30:33;8.10;99.90
4399;DHT22;2213;49.720;7.296;2022-11-24T07:33:02;8.10;99.90
4399;DHT22;2213;49.720;7.296;2022-11-24T07:35:33;8.00;99.90
4399;DHT22;2213;49.720;7.296;2022-11-24T07:38:02;7.90;99.90
4399;DHT22;2213;49.720;7.296;2022-11-24T07:40:32;7.90;99.90
4399;DHT22;2213;49.720;7.296;2022-11-24T07:43:01;7.90;99.90
4399;DHT22;2213;49.720;7.296;2022-11-24T07:45:30;7.90;99.90
4399;DHT22;2213;49.720;7.296;2022-11-24T07:48:01;7.90;99.90
4399;DHT22;2213;49.720;7.296;2022-11-24T07:50:32;8.00;99.90
4399;DHT22;2213;49.720;7.296;2022-11-24T07:53:02;8.00;99.90
4399;DHT22;2213;49.720;7.296;2022-11-24T07:55:32;8.00;99.90
4399;DHT22;2213;49.720;7.296;2022-11-24T07:58:01;8.00;99.90
4399;DHT22;2213;49.720;7.296;2022-11-24T08:00:30;8.00;99.90
4399;DHT22;2213;49.720;7.296;2022-11-24T08:03:00;8.10;99.90
4399;DHT22;2213;49.720;7.296;2022-11-24T08:05:29;8.10;99.90
4399;DHT22;2213;49.720;7.296;2022-11-24T08:08:00;8.00;99.90
4399;DHT22;2213;49.720;7.296;2022-11-24T08:10:30;8.10;99.90
4399;DHT22;2213;49.720;7.296;2022-11-24T08:12:59;8.10;99.90
4399;DHT22;2213;49.720;7.296;2022-11-24T08:15:29;8.10;99.90
4399;DHT22;2213;49.720;7.296;2022-11-24T08:18:01;8.20;99.90
4399;DHT22;2213;49.720;7.296;2022-11-24T08:20:30;8.20;99.90
4399;DHT22;2213;49.720;7.296;2022-11-24T08:23:01;8.10;99.90
4399;DHT22;2213;49.720;7.296;2022-11-24T08:25:30;8.20;99.90
4399;DHT22;2213;49.720;7.296;2022-11-24T08:28:00;8.20;99.90
4399;DHT22;2213;49.720;7.296;2022-11-24T08:30:31;8.20;99.90
4399;DHT22;2213;49.720;7.296;2022-11-24T08:33:01;8.20;99.90
4399;DHT22;2213;49.720;7.296;2022-11-24T08:35:30;8.30;99.90
4399;DHT22;2213;49.720;7.296;2022-11-24T08:38:05;8.30;99.90
4399;DHT22;2213;49.720;7.296;2022-11-24T08:40:34;8.30;99.90
4399;DHT22;2213;49.720;7.296;2022-11-24T08:43:03;8.30;99.90
4399;DHT22;2213;49.720;7.296;2022-11-24T08:45:31;8.30;99.90
4399;DHT22;2213;49.720;7.296;2022-11-24T08:48:08;8.40;99.90
4399;DHT22;2213;49.720;7.296;2022-11-24T08:50:37;8.30;99.90
4399;DHT22;2213;49.720;7.296;2022-11-24T08:53:07;8.30;99.90
4399;DHT22;2213;49.720;7.296;2022-11-24T08:55:37;8.40;99.90
4399;DHT22;2213;49.720;7.296;2022-11-24T08:58:06;8.40;99.90
4399;DHT22;2213;49.720;7.296;2022-11-24T09:00:36;8.40;99.90
4399;DHT22;2213;49.720;7.296;2022-11-24T09:03:06;8.50;99.90
4399;DHT22;2213;49.720;7.296;2022-11-24T09:05:38;8.50;99.90
4399;DHT22;2213;49.720;7.296;2022-11-24T09:08:20;8.50;99.90
4399;DHT22;2213;49.720;7.296;2022-11-24T09:10:50;8.50;99.90
4399;DHT22;2213;49.720;7.296;2022-11-24T09:13:19;8.60;99.90
4399;DHT22;2213;49.720;7.296;2022-11-24T09:15:49;8.60;99.90
4399;DHT22;2213;49.720;7.296;2022-11-24T09:18:19;8.60;99.90
4399;DHT22;2213;49.720;7.296;2022-11-24T09:20:52;8.60;99.90
4399;DHT22;2213;49.720;7.296;2022-11-24T09:23:25;8.60;99.90
4399;DHT22;2213;49.720;7.296;2022-11-24T09:26:03;8.60;99.90
4399;DHT22;2213;49.720;7.296;2022-11-24T09:28:32;8.70;99.90
4399;DHT22;2213;49.720;7.296;2022-11-24T09:31:02;8.60;99.90
4399;DHT22;2213;49.720;7.296;2022-11-24T09:33:32;8.70;99.90
4399;DHT22;2213;49.720;7.296;2022-11-24T09:36:03;8.70;99.90
4399;DHT22;2213;49.720;7.296;2022-11-24T09:38:33;8.80;99.90
4399;DHT22;2213;49.720;7.296;2022-11-24T09:44:53;8.90;99.90
4399;DHT22;2213;49.720;7.296;2022-11-24T09:47:42;9.00;99.90
4399;DHT22;2213;49.720;7.296;2022-11-24T09:50:20;8.90;99.90
4399;DHT22;2213;49.720;7.296;2022-11-24T09:52:56;9.00;99.90
4399;DHT22;2213;49.720;7.296;2022-11-24T09:55:38;9.10;99.90
4399;DHT22;2213;49.720;7.296;2022-11-24T09:58:20;9.10;99.90
4399;DHT22;2213;49.720;7.296;2022-11-24T10:00:58;9.10;99.90
4399;DHT22;2213;49.720;7.296;2022-11-24T10:03:32;9.10;99.90
4399;DHT22;2213;49.720;7.296;2022-11-24T10:06:23;9.20;99.90
4399;DHT22;2213;49.720;7.296;2022-11-24T10:09:06;9.20;99.90
4399;DHT22;2213;49.720;7.296;2022-11-24T10:11:57;9.10;99.90
4399;DHT22;2213;49.720;7.296;2022-11-24T10:15:05;9.20;99.90
4399;DHT22;2213;49.720;7.296;2022-11-24T10:18:41;9.30;99.90
4399;DHT22;2213;49.720;7.296;2022-11-24T10:21:45;9.30;99.90
4399;DHT22;2213;49.720;7.296;2022-11-24T10:24:42;9.30;99.90
4399;DHT22;2213;49.720;7.296;2022-11-24T10:27:32;9.30;99.90
4399;DHT22;2213;49.720;7.296;2022-11-24T10:30:14;9.30;99.90
4399;DHT22;2213;49.720;7.296;2022-11-24T10:32:47;9.30;99.90
4399;DHT22;2213;49.720;7.296;2022-11-24T10:35:21;9.40;99.90
4399;DHT22;2213;49.720;7.296;2022-11-24T10:38:01;9.30;99.90
4399;DHT22;2213;49.720;7.296;2022-11-24T10:40:44;9.50;99.90
4399;DHT22;2213;49.720;7.296;2022-11-24T10:43:27;9.50;99.90
4399;DHT22;2213;49.720;7.296;2022-11-24T10:46:00;9.50;99.90
4399;DHT22;2213;49.720;7.296;2022-11-24T10:48:40;9.50;99.90
4399;DHT22;2213;49.720;7.296;2022-11-24T10:51:35;9.50;99.90
4399;DHT22;2213;49.720;7.296;2022-11-24T10:54:32;9.50;99.90
4399;DHT22;2213;49.720;7.296;2022-11-24T10:57:02;9.50;99.90
4399;DHT22;2213;49.720;7.296;2022-11-24T10:59:35;9.60;99.90
4399;DHT22;2213;49.720;7.296;2022-11-24T11:02:34;9.60;99.90
4399;DHT22;2213;49.720;7.296;2022-11-24T11:05:30;9.60;99.90
4399;DHT22;2213;49.720;7.296;2022-11-24T11:08:27;9.60;99.90
4399;DHT22;2213;49.720;7.296;2022-11-24T11:11:12;9.70;99.90
4399;DHT22;2213;49.720;7.296;2022-11-24T11:13:53;9.70;99.90
4399;DHT22;2213;49.720;7.296;2022-11-24T11:16:34;9.60;99.90
4399;DHT22;2213;49.720;7.296;2022-11-24T11:19:27;9.60;99.90
4399;DHT22;2213;49.720;7.296;2022-11-24T11:22:22;9.50;99.90
4399;DHT22;2213;49.720;7.296;2022-11-24T11:25:06;9.60;99.90
4399;DHT22;2213;49.720;7.296;2022-11-24T11:27:48;9.60;99.90
4399;DHT22;2213;49.720;7.296;2022-11-24T11:30:21;9.50;99.90
4399;DHT22;2213;49.720;7.296;2022-11-24T11:33:22;9.60;99.90
4399;DHT22;2213;49.720;7.296;2022-11-24T11:36:14;9.60;99.90
4399;DHT22;2213;49.720;7.296;2022-11-24T11:38:46;9.70;99.90
4399;DHT22;2213;49.720;7.296;2022-11-24T11:41:20;9.70;99.90
4399;DHT22;2213;49.720;7.296;2022-11-24T11:44:10;9.60;99.90
4399;DHT22;2213;49.720;7.296;2022-11-24T11:46:51;9.70;99.90
4399;DHT22;2213;49.720;7.296;2022-11-24T11:49:25;9.70;99.90
4399;DHT22;2213;49.720;7.296;2022-11-24T11:52:17;9.70;99.90
4399;DHT22;2213;49.720;7.296;2022-11-24T11:55:21;9.60;99.90
4399;DHT22;2213;49.720;7.296;2022-11-24T11:58:17;9.70;99.90
4399;DHT22;2213;49.720;7.296;2022-11-24T12:01:09;9.70;99.90
4399;DHT22;2213;49.720;7.296;2022-11-24T12:03:56;9.80;99.90
4399;DHT22;2213;49.720;7.296;2022-11-24T12:06:51;9.70;99.90
4399;DHT22;2213;49.720;7.296;2022-11-24T12:09:59;9.70;99.90
4399;DHT22;2213;49.720;7.296;2022-11-24T12:12:54;9.80;99.90
4399;DHT22;2213;49.720;7.296;2022-11-24T12:15:48;9.80;99.90
4399;DHT22;2213;49.720;7.296;2022-11-24T12:18:31;9.80;99.90
4399;DHT22;2213;49.720;7.296;2022-11-24T12:21:31;9.90;99.90
4399;DHT22;2213;49.720;7.296;2022-11-24T12:24:15;9.90;99.90
4399;DHT22;2213;49.720;7.296;2022-11-24T12:26:53;9.90;99.90
4399;DHT22;2213;49.720;7.296;2022-11-24T12:29:58;10.00;99.90
4399;DHT22;2213;49.720;7.296;2022-11-24T12:32:47;10.00;99.90
4399;DHT22;2213;49.720;7.296;2022-11-24T12:35:39;10.10;99.90
4399;DHT22;2213;49.720;7.296;2022-11-24T12:38:21;10.10;99.90
4399;DHT22;2213;49.720;7.296;2022-11-24T12:41:26;10.10;99.90
4399;DHT22;2213;49.720;7.296;2022-11-24T12:44:27;10.10;99.90
4399;DHT22;2213;49.720;7.296;2022-11-24T12:47:12;10.00;99.90
4399;DHT22;2213;49.720;7.296;2022-11-24T12:49:57;10.00;99.90
4399;DHT22;2213;49.720;7.296;2022-11-24T12:52:38;10.00;99.90
4399;DHT22;2213;49.720;7.296;2022-11-24T12:55:14;10.00;99.90
4399;DHT22;2213;49.720;7.296;2022-11-24T12:57:53;9.70;99.90
4399;DHT22;2213;49.720;7.296;2022-11-24T13:00:29;9.80;99.90
4399;DHT22;2213;49.720;7.296;2022-11-24T13:03:16;9.90;99.90
4399;DHT22;2213;49.720;7.296;2022-11-24T13:05:58;9.90;99.90
4399;DHT22;2213;49.720;7.296;2022-11-24T13:08:35;9.90;99.90
4399;DHT22;2213;49.720;7.296;2022-11-24T13:11:34;10.00;99.90
4399;DHT22;2213;49.720;7.296;2022-11-24T13:14:20;10.00;99.90
4399;DHT22;2213;49.720;7.296;2022-11-24T13:16:54;10.10;99.90
4399;DHT22;2213;49.720;7.296;2022-11-24T13:19:45;10.00;99.90
4399;DHT22;2213;49.720;7.296;2022-11-24T13:22:21;9.90;99.90
4399;DHT22;2213;49.720;7.296;2022-11-24T13:25:12;10.10;99.90
4399;DHT22;2213;49.720;7.296;2022-11-24T13:27:46;10.10;99.90
4399;DHT22;2213;49.720;7.296;2022-11-24T13:30:53;10.20;99.90
4399;DHT22;2213;49.720;7.296;2022-11-24T13:33:38;10.10;99.90
4399;DHT22;2213;49.720;7.296;2022-11-24T13:36:30;10.10;99.90
4399;DHT22;2213;49.720;7.296;2022-11-24T13:39:02;10.10;99.90
4399;DHT22;2213;49.720;7.296;2022-11-24T13:41:59;10.20;99.90
4399;DHT22;2213;49.720;7.296;2022-11-24T13:44:46;10.20;99.90
4399;DHT22;2213;49.720;7.296;2022-11-24T13:47:35;10.10;99.90
4399;DHT22;2213;49.720;7.296;2022-11-24T13:50:12;10.10;99.90
4399;DHT22;2213;49.720;7.296;2022-11-24T13:52:52;10.20;99.90
4399;DHT22;2213;49.720;7.296;2022-11-24T13:55:31;10.20;99.90
4399;DHT22;2213;49.720;7.296;2022-11-24T13:58:29;10.10;99.90
4399;DHT22;2213;49.720;7.296;2022-11-24T14:01:30;10.20;99.90
4399;DHT22;2213;49.720;7.296;2022-11-24T14:04:15;10.30;99.90
4399;DHT22;2213;49.720;7.296;2022-11-24T14:07:04;10.10;99.90
4399;DHT22;2213;49.720;7.296;2022-11-24T14:09:40;10.20;99.90
4399;DHT22;2213;49.720;7.296;2022-11-24T14:12:13;10.10;99.90
4399;DHT22;2213;49.720;7.296;2022-11-24T14:14:45;10.10;99.90
4399;DHT22;2213;49.720;7.296;2022-11-24T14:17:17;10.10;99.90
4399;DHT22;2213;49.720;7.296;2022-11-24T14:19:51;10.10;99.90
4399;DHT22;2213;49.720;7.296;2022-11-24T14:22:24;10.10;99.90
4399;DHT22;2213;49.720;7.296;2022-11-24T14:25:00;10.10;99.90
4399;DHT22;2213;49.720;7.296;2022-11-24T14:27:32;10.10;99.90
4399;DHT22;2213;49.720;7.296;2022-11-24T14:30:14;10.00;99.90
4399;DHT22;2213;49.720;7.296;2022-11-24T14:32:54;10.00;99.90
4399;DHT22;2213;49.720;7.296;2022-11-24T14:35:28;10.00;99.90
4399;DHT22;2213;49.720;7.296;2022-11-24T14:38:01;9.90;99.90
4399;DHT22;2213;49.720;7.296;2022-11-24T14:40:41;9.80;99.90
4399;DHT22;2213;49.720;7.296;2022-11-24T14:43:18;9.70;99.90
4399;DHT22;2213;49.720;7.296;2022-11-24T14:45:50;9.80;99.90
4399;DHT22;2213;49.720;7.296;2022-11-24T14:48:25;9.80;99.90
4399;DHT22;2213;49.720;7.296;2022-11-24T14:51:07;9.70;99.90
4399;DHT22;2213;49.720;7.296;2022-11-24T14:53:45;9.70;99.90
4399;DHT22;2213;49.720;7.296;2022-11-24T14:56:25;9.60;99.90
4399;DHT22;2213;49.720;7.296;2022-11-24T14:58:56;9.60;99.90
4399;DHT22;2213;49.720;7.296;2022-11-24T15:01:31;9.50;99.90
4399;DHT22;2213;49.720;7.296;2022-11-24T15:04:14;9.40;99.90
4399;DHT22;2213;49.720;7.296;2022-11-24T15:07:13;9.40;99.90
4399;DHT22;2213;49.720;7.296;2022-11-24T15:09:51;9.30;99.90
4399;DHT22;2213;49.720;7.296;2022-11-24T15:12:27;9.30;99.90
4399;DHT22;2213;49.720;7.296;2022-11-24T15:15:02;9.30;99.90
4399;DHT22;2213;49.720;7.296;2022-11-24T15:17:32;9.20;99.90
4399;DHT22;2213;49.720;7.296;2022-11-24T15:20:07;9.20;99.90
4399;DHT22;2213;49.720;7.296;2022-11-24T15:22:47;9.10;99.90
4399;DHT22;2213;49.720;7.296;2022-11-24T15:25:26;9.00;99.90
4399;DHT22;2213;49.720;7.296;2022-11-24T15:27:59;8.90;99.90
4399;DHT22;2213;49.720;7.296;2022-11-24T15:30:30;8.80;99.90
4399;DHT22;2213;49.720;7.296;2022-11-24T15:33:02;8.70;99.90
4399;DHT22;2213;49.720;7.296;2022-11-24T15:35:40;8.50;99.90
4399;DHT22;2213;49.720;7.296;2022-11-24T15:38:11;8.60;99.90
4399;DHT22;2213;49.720;7.296;2022-11-24T15:40:42;8.50;99.90
4399;DHT22;2213;49.720;7.296;2022-11-24T15:43:18;8.40;99.90
4399;DHT22;2213;49.720;7.296;2022-11-24T15:45:55;8.40;99.90
4399;DHT22;2213;49.720;7.296;2022-11-24T15:48:26;8.30;99.90
4399;DHT22;2213;49.720;7.296;2022-11-24T15:50:55;8.20;99.90
4399;DHT22;2213;49.720;7.296;2022-11-24T15:53:29;8.20;99.90
4399;DHT22;2213;49.720;7.296;2022-11-24T15:56:02;8.00;99.90
4399;DHT22;2213;49.720;7.296;2022-11-24T15:58:34;8.10;99.90
4399;DHT22;2213;49.720;7.296;2022-11-24T16:01:03;7.90;99.90
4399;DHT22;2213;49.720;7.296;2022-11-24T16:03:32;7.90;99.90
4399;DHT22;2213;49.720;7.296;2022-11-24T16:06:15;7.90;99.90
4399;DHT22;2213;49.720;7.296;2022-11-24T16:08:52;7.70;99.90
4399;DHT22;2213;49.720;7.296;2022-11-24T16:11:22;7.80;99.90
4399;DHT22;2213;49.720;7.296;2022-11-24T16:13:52;7.70;99.90
4399;DHT22;2213;49.720;7.296;2022-11-24T16:16:21;7.70;99.90
4399;DHT22;2213;49.720;7.296;2022-11-24T16:18:51;7.80;99.90
4399;DHT22;2213;49.720;7.296;2022-11-24T16:21:21;7.60;99.90
4399;DHT22;2213;49.720;7.296;2022-11-24T16:23:49;7.70;99.90
4399;DHT22;2213;49.720;7.296;2022-11-24T16:26:21;7.60;99.90
4399;DHT22;2213;49.720;7.296;2022-11-24T16:28:52;7.40;99.90
4399;DHT22;2213;49.720;7.296;2022-11-24T16:31:21;7.40;99.90
4399;DHT22;2213;49.720;7.296;2022-11-24T16:33:51;7.40;99.90
4399;DHT22;2213;49.720;7.296;2022-11-24T16:36:22;7.30;99.90
4399;DHT22;2213;49.720;7.296;2022-11-24T16:38:52;7.20;99.90
4399;DHT22;2213;49.720;7.296;2022-11-24T16:41:22;7.20;99.90
4399;DHT22;2213;49.720;7.296;2022-11-24T16:43:51;7.20;99.90
4399;DHT22;2213;49.720;7.296;2022-11-24T16:46:22;7.10;99.90
4399;DHT22;2213;49.720;7.296;2022-11-24T16:48:53;7.10;99.90
4399;DHT22;2213;49.720;7.296;2022-11-24T16:51:26;7.10;99.90
4399;DHT22;2213;49.720;7.296;2022-11-24T16:54:03;7.10;99.90
4399;DHT22;2213;49.720;7.296;2022-11-24T16:56:33;7.10;99.90
4399;DHT22;2213;49.720;7.296;2022-11-24T16:59:02;7.00;99.90
4399;DHT22;2213;49.720;7.296;2022-11-24T17:01:32;7.00;99.90
4399;DHT22;2213;49.720;7.296;2022-11-24T17:04:02;6.80;99.90
4399;DHT22;2213;49.720;7.296;2022-11-24T17:06:38;6.90;99.90
4399;DHT22;2213;49.720;7.296;2022-11-24T17:09:09;6.80;99.90
4399;DHT22;2213;49.720;7.296;2022-11-24T17:11:39;6.90;99.90
4399;DHT22;2213;49.720;7.296;2022-11-24T17:14:08;6.90;99.90